Terminal Aerodrome Forecast
Issued by NWS Tampa Bay Area, FL

Home | Current Version | Previous Version | Text Only | Print | Product List | Glossary On
Versions: 1 2 3 4 5 6 7 8 9 10 11 12
000
FTUS42 KTBW 040529
TAFFMY
TAF
KFMY 040529Z 0406/0506 VRB03KT P6SM SCT250
     FM041400 12006KT P6SM FEW025 SCT250
     FM041800 23007KT P6SM VCTS SCT035CB BKN250
     FM042100 32007KT P6SM VCTS SCT040CB BKN120
     FM042300 10007KT P6SM VCTS SCT040CB BKN150
     FM050200 10003KT P6SM SCT050 BKN250=

USA.gov is the U.S. government's official web portal to all federal, state and local government web resources and services.